sensor_id;sensor_type;location;lat;lon;timestamp;P1;durP1;ratioP1;P2;durP2;ratioP2
44270;SDS011;29963;44.594;11.368;2022-11-15T00:00:08;51.78;;;38.28;;
44270;SDS011;29963;44.594;11.368;2022-11-15T00:02:34;52.90;;;39.70;;
44270;SDS011;29963;44.594;11.368;2022-11-15T00:05:00;52.92;;;38.83;;
44270;SDS011;29963;44.594;11.368;2022-11-15T00:07:25;52.80;;;35.20;;
44270;SDS011;29963;44.594;11.368;2022-11-15T00:09:51;52.63;;;38.13;;
44270;SDS011;29963;44.594;11.368;2022-11-15T00:12:17;44.30;;;34.60;;
44270;SDS011;29963;44.594;11.368;2022-11-15T00:14:42;52.63;;;36.60;;
44270;SDS011;29963;44.594;11.368;2022-11-15T00:17:08;47.97;;;35.83;;
44270;SDS011;29963;44.594;11.368;2022-11-15T00:19:34;52.78;;;37.80;;
44270;SDS011;29963;44.594;11.368;2022-11-15T00:21:59;50.65;;;36.65;;
44270;SDS011;29963;44.594;11.368;2022-11-15T00:24:25;52.50;;;35.67;;
44270;SDS011;29963;44.594;11.368;2022-11-15T00:26:51;44.70;;;32.90;;
44270;SDS011;29963;44.594;11.368;2022-11-15T00:29:17;56.13;;;36.25;;
44270;SDS011;29963;44.594;11.368;2022-11-15T00:31:42;43.33;;;33.78;;
44270;SDS011;29963;44.594;11.368;2022-11-15T00:34:09;51.22;;;36.15;;
44270;SDS011;29963;44.594;11.368;2022-11-15T00:36:35;46.85;;;34.88;;
44270;SDS011;29963;44.594;11.368;2022-11-15T00:39:02;41.60;;;33.58;;
44270;SDS011;29963;44.594;11.368;2022-11-15T00:41:29;43.97;;;32.53;;
44270;SDS011;29963;44.594;11.368;2022-11-15T00:43:55;43.22;;;31.70;;
44270;SDS011;29963;44.594;11.368;2022-11-15T00:46:20;43.90;;;32.80;;
44270;SDS011;29963;44.594;11.368;2022-11-15T00:48:46;43.55;;;32.40;;
44270;SDS011;29963;44.594;11.368;2022-11-15T00:51:11;46.25;;;34.30;;
44270;SDS011;29963;44.594;11.368;2022-11-15T00:53:37;42.03;;;31.20;;
44270;SDS011;29963;44.594;11.368;2022-11-15T00:56:03;44.00;;;32.58;;
44270;SDS011;29963;44.594;11.368;2022-11-15T00:58:28;40.28;;;29.52;;
44270;SDS011;29963;44.594;11.368;2022-11-15T01:00:54;42.13;;;31.48;;
44270;SDS011;29963;44.594;11.368;2022-11-15T01:03:19;36.47;;;27.33;;
44270;SDS011;29963;44.594;11.368;2022-11-15T01:05:45;39.67;;;30.67;;
44270;SDS011;29963;44.594;11.368;2022-11-15T01:08:14;36.22;;;27.35;;
44270;SDS011;29963;44.594;11.368;2022-11-15T01:10:41;42.42;;;30.23;;
44270;SDS011;29963;44.594;11.368;2022-11-15T01:13:07;37.28;;;27.15;;
44270;SDS011;29963;44.594;11.368;2022-11-15T01:15:32;39.15;;;30.02;;
44270;SDS011;29963;44.594;11.368;2022-11-15T01:17:58;37.40;;;27.08;;
44270;SDS011;29963;44.594;11.368;2022-11-15T01:20:24;38.97;;;29.30;;
44270;SDS011;29963;44.594;11.368;2022-11-15T01:22:49;39.60;;;31.42;;
44270;SDS011;29963;44.594;11.368;2022-11-15T01:25:15;34.38;;;26.63;;
44270;SDS011;29963;44.594;11.368;2022-11-15T01:27:41;39.50;;;29.95;;
44270;SDS011;29963;44.594;11.368;2022-11-15T01:30:06;40.03;;;28.45;;
44270;SDS011;29963;44.594;11.368;2022-11-15T01:32:33;36.90;;;27.48;;
44270;SDS011;29963;44.594;11.368;2022-11-15T01:34:59;45.08;;;29.60;;
44270;SDS011;29963;44.594;11.368;2022-11-15T01:37:24;35.92;;;26.00;;
44270;SDS011;29963;44.594;11.368;2022-11-15T01:39:50;40.78;;;30.27;;
44270;SDS011;29963;44.594;11.368;2022-11-15T01:42:16;44.13;;;30.20;;
44270;SDS011;29963;44.594;11.368;2022-11-15T01:49:45;39.40;;;29.58;;
44270;SDS011;29963;44.594;11.368;2022-11-15T01:52:27;43.65;;;24.95;;
44270;SDS011;29963;44.594;11.368;2022-11-15T01:55:05;42.33;;;28.08;;
44270;SDS011;29963;44.594;11.368;2022-11-15T01:57:36;36.45;;;26.55;;
44270;SDS011;29963;44.594;11.368;2022-11-15T02:00:03;38.47;;;28.08;;
44270;SDS011;29963;44.594;11.368;2022-11-15T02:02:30;40.17;;;27.77;;
44270;SDS011;29963;44.594;11.368;2022-11-15T02:04:56;40.35;;;28.52;;
44270;SDS011;29963;44.594;11.368;2022-11-15T02:07:22;43.20;;;29.73;;
44270;SDS011;29963;44.594;11.368;2022-11-15T02:09:47;36.28;;;24.70;;
44270;SDS011;29963;44.594;11.368;2022-11-15T02:12:15;34.70;;;25.77;;
44270;SDS011;29963;44.594;11.368;2022-11-15T02:14:45;36.60;;;27.55;;
44270;SDS011;29963;44.594;11.368;2022-11-15T02:29:14;41.15;;;29.23;;
44270;SDS011;29963;44.594;11.368;2022-11-15T02:37:39;39.60;;;28.45;;
44270;SDS011;29963;44.594;11.368;2022-11-15T02:40:11;38.10;;;26.00;;
44270;SDS011;29963;44.594;11.368;2022-11-15T02:42:50;37.38;;;25.70;;
44270;SDS011;29963;44.594;11.368;2022-11-15T02:45:40;39.85;;;26.15;;
44270;SDS011;29963;44.594;11.368;2022-11-15T02:48:10;37.13;;;26.10;;
44270;SDS011;29963;44.594;11.368;2022-11-15T02:50:37;35.75;;;26.50;;
44270;SDS011;29963;44.594;11.368;2022-11-15T02:53:03;31.42;;;23.02;;
44270;SDS011;29963;44.594;11.368;2022-11-15T02:55:30;35.70;;;25.67;;
44270;SDS011;29963;44.594;11.368;2022-11-15T02:58:15;34.15;;;24.38;;
44270;SDS011;29963;44.594;11.368;2022-11-15T03:01:09;37.33;;;25.02;;
44270;SDS011;29963;44.594;11.368;2022-11-15T03:06:48;38.13;;;27.15;;
44270;SDS011;29963;44.594;11.368;2022-11-15T03:09:24;37.08;;;25.10;;
44270;SDS011;29963;44.594;11.368;2022-11-15T03:11:54;31.63;;;25.50;;
44270;SDS011;29963;44.594;11.368;2022-11-15T03:14:34;40.38;;;29.13;;
44270;SDS011;29963;44.594;11.368;2022-11-15T03:19:53;35.22;;;24.95;;
44270;SDS011;29963;44.594;11.368;2022-11-15T03:22:22;39.30;;;27.52;;
44270;SDS011;29963;44.594;11.368;2022-11-15T03:24:53;38.45;;;27.30;;
44270;SDS011;29963;44.594;11.368;2022-11-15T03:27:23;38.70;;;25.80;;
44270;SDS011;29963;44.594;11.368;2022-11-15T03:29:56;33.88;;;24.85;;
44270;SDS011;29963;44.594;11.368;2022-11-15T03:32:26;31.48;;;26.13;;
44270;SDS011;29963;44.594;11.368;2022-11-15T03:35:00;38.33;;;25.85;;
44270;SDS011;29963;44.594;11.368;2022-11-15T03:40:07;34.58;;;24.88;;
44270;SDS011;29963;44.594;11.368;2022-11-15T03:42:36;35.92;;;24.65;;
44270;SDS011;29963;44.594;11.368;2022-11-15T03:45:31;31.15;;;23.42;;
44270;SDS011;29963;44.594;11.368;2022-11-15T03:48:20;35.70;;;25.80;;
44270;SDS011;29963;44.594;11.368;2022-11-15T03:50:49;77.57;;;36.45;;
44270;SDS011;29963;44.594;11.368;2022-11-15T03:53:16;168.13;;;67.72;;
44270;SDS011;29963;44.594;11.368;2022-11-15T03:55:42;120.97;;;56.47;;
44270;SDS011;29963;44.594;11.368;2022-11-15T03:58:08;96.32;;;47.95;;
44270;SDS011;29963;44.594;11.368;2022-11-15T04:00:34;45.40;;;30.92;;
44270;SDS011;29963;44.594;11.368;2022-11-15T04:02:59;37.55;;;25.80;;
44270;SDS011;29963;44.594;11.368;2022-11-15T04:05:25;33.80;;;23.50;;
44270;SDS011;29963;44.594;11.368;2022-11-15T04:07:51;33.65;;;25.25;;
44270;SDS011;29963;44.594;11.368;2022-11-15T04:10:16;32.35;;;25.05;;
44270;SDS011;29963;44.594;11.368;2022-11-15T04:12:43;44.95;;;28.10;;
44270;SDS011;29963;44.594;11.368;2022-11-15T04:15:13;28.33;;;21.75;;
44270;SDS011;29963;44.594;11.368;2022-11-15T04:20:27;28.83;;;22.70;;
44270;SDS011;29963;44.594;11.368;2022-11-15T04:23:16;35.50;;;24.67;;
44270;SDS011;29963;44.594;11.368;2022-11-15T04:26:02;33.42;;;25.17;;
44270;SDS011;29963;44.594;11.368;2022-11-15T04:28:33;35.05;;;25.00;;
44270;SDS011;29963;44.594;11.368;2022-11-15T04:30:59;35.67;;;25.05;;
44270;SDS011;29963;44.594;11.368;2022-11-15T04:33:24;34.65;;;25.30;;
44270;SDS011;29963;44.594;11.368;2022-11-15T04:35:50;30.38;;;23.23;;
44270;SDS011;29963;44.594;11.368;2022-11-15T04:38:35;34.15;;;24.48;;
44270;SDS011;29963;44.594;11.368;2022-11-15T04:41:01;30.10;;;24.10;;
44270;SDS011;29963;44.594;11.368;2022-11-15T04:43:27;137.07;;;52.13;;
44270;SDS011;29963;44.594;11.368;2022-11-15T04:45:53;39.72;;;27.42;;
44270;SDS011;29963;44.594;11.368;2022-11-15T04:48:18;31.23;;;24.58;;
44270;SDS011;29963;44.594;11.368;2022-11-15T04:50:44;33.22;;;26.02;;
44270;SDS011;29963;44.594;11.368;2022-11-15T04:53:12;30.73;;;24.35;;
44270;SDS011;29963;44.594;11.368;2022-11-15T04:55:37;27.48;;;21.88;;
44270;SDS011;29963;44.594;11.368;2022-11-15T04:58:03;31.25;;;23.25;;
44270;SDS011;29963;44.594;11.368;2022-11-15T05:00:29;34.92;;;26.15;;
44270;SDS011;29963;44.594;11.368;2022-11-15T05:02:55;33.83;;;25.00;;
44270;SDS011;29963;44.594;11.368;2022-11-15T05:05:41;32.40;;;24.52;;
44270;SDS011;29963;44.594;11.368;2022-11-15T05:08:06;33.70;;;24.60;;
44270;SDS011;29963;44.594;11.368;2022-11-15T05:10:32;34.72;;;25.38;;
44270;SDS011;29963;44.594;11.368;2022-11-15T05:12:58;30.95;;;23.17;;
44270;SDS011;29963;44.594;11.368;2022-11-15T05:15:24;27.45;;;20.35;;
44270;SDS011;29963;44.594;11.368;2022-11-15T05:17:49;30.45;;;24.65;;
44270;SDS011;29963;44.594;11.368;2022-11-15T05:20:15;28.50;;;21.88;;
44270;SDS011;29963;44.594;11.368;2022-11-15T05:22:41;32.20;;;23.30;;
44270;SDS011;29963;44.594;11.368;2022-11-15T05:25:06;26.27;;;22.55;;
44270;SDS011;29963;44.594;11.368;2022-11-15T05:27:33;29.52;;;23.70;;
44270;SDS011;29963;44.594;11.368;2022-11-15T05:29:59;31.30;;;23.75;;
44270;SDS011;29963;44.594;11.368;2022-11-15T05:32:24;31.25;;;22.63;;
44270;SDS011;29963;44.594;11.368;2022-11-15T05:34:50;28.40;;;23.58;;
44270;SDS011;29963;44.594;11.368;2022-11-15T05:37:16;37.97;;;22.27;;
44270;SDS011;29963;44.594;11.368;2022-11-15T05:39:43;27.92;;;21.70;;
44270;SDS011;29963;44.594;11.368;2022-11-15T05:42:12;36.28;;;24.33;;
44270;SDS011;29963;44.594;11.368;2022-11-15T05:44:39;28.17;;;23.50;;
44270;SDS011;29963;44.594;11.368;2022-11-15T05:47:09;30.75;;;22.15;;
44270;SDS011;29963;44.594;11.368;2022-11-15T05:49:37;32.22;;;23.67;;
44270;SDS011;29963;44.594;11.368;2022-11-15T05:52:08;28.75;;;22.00;;
44270;SDS011;29963;44.594;11.368;2022-11-15T05:54:37;32.45;;;25.13;;
44270;SDS011;29963;44.594;11.368;2022-11-15T05:57:04;34.22;;;24.30;;
44270;SDS011;29963;44.594;11.368;2022-11-15T05:59:29;34.33;;;23.33;;
44270;SDS011;29963;44.594;11.368;2022-11-15T06:01:56;30.80;;;23.60;;
44270;SDS011;29963;44.594;11.368;2022-11-15T06:04:22;32.80;;;23.85;;
44270;SDS011;29963;44.594;11.368;2022-11-15T06:06:48;31.80;;;23.77;;
44270;SDS011;29963;44.594;11.368;2022-11-15T06:09:13;34.33;;;23.15;;
44270;SDS011;29963;44.594;11.368;2022-11-15T06:11:39;27.13;;;21.02;;
44270;SDS011;29963;44.594;11.368;2022-11-15T06:14:05;28.27;;;22.65;;
44270;SDS011;29963;44.594;11.368;2022-11-15T06:16:30;32.05;;;22.45;;
44270;SDS011;29963;44.594;11.368;2022-11-15T06:18:56;34.45;;;24.88;;
44270;SDS011;29963;44.594;11.368;2022-11-15T06:21:22;32.22;;;25.13;;
44270;SDS011;29963;44.594;11.368;2022-11-15T06:23:48;28.55;;;22.42;;
44270;SDS011;29963;44.594;11.368;2022-11-15T06:26:13;30.05;;;23.20;;
44270;SDS011;29963;44.594;11.368;2022-11-15T06:28:39;35.63;;;23.42;;
44270;SDS011;29963;44.594;11.368;2022-11-15T06:31:06;31.35;;;22.88;;
44270;SDS011;29963;44.594;11.368;2022-11-15T06:33:33;30.02;;;23.50;;
44270;SDS011;29963;44.594;11.368;2022-11-15T06:36:17;31.25;;;23.15;;
44270;SDS011;29963;44.594;11.368;2022-11-15T06:38:43;28.95;;;21.65;;
44270;SDS011;29963;44.594;11.368;2022-11-15T06:41:10;33.28;;;25.38;;
44270;SDS011;29963;44.594;11.368;2022-11-15T06:43:37;30.92;;;22.92;;
44270;SDS011;29963;44.594;11.368;2022-11-15T06:46:04;34.28;;;23.23;;
44270;SDS011;29963;44.594;11.368;2022-11-15T06:48:31;24.02;;;20.08;;
44270;SDS011;29963;44.594;11.368;2022-11-15T06:50:58;28.38;;;22.67;;
44270;SDS011;29963;44.594;11.368;2022-11-15T06:53:25;22.63;;;18.63;;
44270;SDS011;29963;44.594;11.368;2022-11-15T06:55:52;27.48;;;21.70;;
44270;SDS011;29963;44.594;11.368;2022-11-15T06:58:18;22.90;;;19.50;;
44270;SDS011;29963;44.594;11.368;2022-11-15T07:00:46;31.10;;;21.88;;
44270;SDS011;29963;44.594;11.368;2022-11-15T07:03:11;38.70;;;21.60;;
44270;SDS011;29963;44.594;11.368;2022-11-15T07:05:37;29.40;;;20.98;;
44270;SDS011;29963;44.594;11.368;2022-11-15T07:08:03;25.63;;;20.27;;
44270;SDS011;29963;44.594;11.368;2022-11-15T07:10:29;26.73;;;19.55;;
44270;SDS011;29963;44.594;11.368;2022-11-15T07:12:55;29.02;;;22.20;;
44270;SDS011;29963;44.594;11.368;2022-11-15T07:15:22;25.83;;;21.80;;
44270;SDS011;29963;44.594;11.368;2022-11-15T07:17:49;26.65;;;19.90;;
44270;SDS011;29963;44.594;11.368;2022-11-15T07:20:15;30.10;;;22.20;;
44270;SDS011;29963;44.594;11.368;2022-11-15T07:22:41;26.05;;;18.90;;
44270;SDS011;29963;44.594;11.368;2022-11-15T07:25:07;32.38;;;22.15;;
44270;SDS011;29963;44.594;11.368;2022-11-15T07:27:34;24.00;;;19.15;;
44270;SDS011;29963;44.594;11.368;2022-11-15T07:29:59;29.65;;;21.67;;
44270;SDS011;29963;44.594;11.368;2022-11-15T07:32:25;22.85;;;18.02;;
44270;SDS011;29963;44.594;11.368;2022-11-15T07:34:51;31.65;;;21.60;;
44270;SDS011;29963;44.594;11.368;2022-11-15T07:37:17;25.13;;;21.60;;
44270;SDS011;29963;44.594;11.368;2022-11-15T07:39:43;29.02;;;19.40;;
44270;SDS011;29963;44.594;11.368;2022-11-15T07:42:09;29.40;;;22.77;;
44270;SDS011;29963;44.594;11.368;2022-11-15T07:44:53;27.98;;;20.42;;
44270;SDS011;29963;44.594;11.368;2022-11-15T07:47:18;32.38;;;23.55;;
44270;SDS011;29963;44.594;11.368;2022-11-15T07:49:45;33.80;;;21.60;;
44270;SDS011;29963;44.594;11.368;2022-11-15T07:52:11;35.92;;;24.13;;
44270;SDS011;29963;44.594;11.368;2022-11-15T07:54:37;25.88;;;20.80;;
44270;SDS011;29963;44.594;11.368;2022-11-15T07:57:03;31.52;;;22.85;;
44270;SDS011;29963;44.594;11.368;2022-11-15T07:59:29;26.15;;;21.00;;
44270;SDS011;29963;44.594;11.368;2022-11-15T08:01:55;25.33;;;21.70;;
44270;SDS011;29963;44.594;11.368;2022-11-15T08:04:21;33.45;;;22.65;;
44270;SDS011;29963;44.594;11.368;2022-11-15T08:06:47;34.42;;;20.90;;
44270;SDS011;29963;44.594;11.368;2022-11-15T08:09:12;27.95;;;21.67;;
44270;SDS011;29963;44.594;11.368;2022-11-15T08:11:38;40.28;;;26.63;;
44270;SDS011;29963;44.594;11.368;2022-11-15T08:14:04;35.53;;;24.27;;
44270;SDS011;29963;44.594;11.368;2022-11-15T08:16:29;33.50;;;25.25;;
44270;SDS011;29963;44.594;11.368;2022-11-15T08:18:55;29.90;;;22.58;;
44270;SDS011;29963;44.594;11.368;2022-11-15T08:21:21;28.23;;;22.48;;
44270;SDS011;29963;44.594;11.368;2022-11-15T08:23:48;31.20;;;22.25;;
44270;SDS011;29963;44.594;11.368;2022-11-15T08:26:14;31.23;;;22.45;;
44270;SDS011;29963;44.594;11.368;2022-11-15T08:28:39;39.78;;;25.58;;
44270;SDS011;29963;44.594;11.368;2022-11-15T08:31:05;36.22;;;24.48;;
44270;SDS011;29963;44.594;11.368;2022-11-15T08:33:32;33.08;;;25.13;;
44270;SDS011;29963;44.594;11.368;2022-11-15T08:36:00;27.52;;;23.27;;
44270;SDS011;29963;44.594;11.368;2022-11-15T08:38:26;29.85;;;24.23;;
44270;SDS011;29963;44.594;11.368;2022-11-15T08:40:59;32.17;;;25.80;;
44270;SDS011;29963;44.594;11.368;2022-11-15T08:43:27;31.52;;;23.20;;
44270;SDS011;29963;44.594;11.368;2022-11-15T08:45:55;33.90;;;26.50;;
44270;SDS011;29963;44.594;11.368;2022-11-15T08:48:21;32.25;;;24.13;;
44270;SDS011;29963;44.594;11.368;2022-11-15T08:50:47;35.08;;;25.40;;
44270;SDS011;29963;44.594;11.368;2022-11-15T08:53:13;38.30;;;25.15;;
44270;SDS011;29963;44.594;11.368;2022-11-15T08:55:38;30.40;;;24.02;;
44270;SDS011;29963;44.594;11.368;2022-11-15T08:58:05;35.22;;;25.58;;
44270;SDS011;29963;44.594;11.368;2022-11-15T09:00:31;49.88;;;27.55;;
44270;SDS011;29963;44.594;11.368;2022-11-15T09:02:57;56.97;;;29.05;;
44270;SDS011;29963;44.594;11.368;2022-11-15T09:05:22;45.35;;;26.90;;
44270;SDS011;29963;44.594;11.368;2022-11-15T09:07:52;30.98;;;23.65;;
44270;SDS011;29963;44.594;11.368;2022-11-15T09:10:19;39.38;;;26.02;;
44270;SDS011;29963;44.594;11.368;2022-11-15T09:12:45;36.55;;;27.13;;
44270;SDS011;29963;44.594;11.368;2022-11-15T09:15:13;31.65;;;25.48;;
44270;SDS011;29963;44.594;11.368;2022-11-15T09:17:39;38.75;;;26.02;;
44270;SDS011;29963;44.594;11.368;2022-11-15T09:20:05;35.08;;;24.52;;
44270;SDS011;29963;44.594;11.368;2022-11-15T09:22:31;39.42;;;26.58;;
44270;SDS011;29963;44.594;11.368;2022-11-15T09:24:57;43.30;;;28.42;;
44270;SDS011;29963;44.594;11.368;2022-11-15T09:27:26;41.25;;;30.73;;
44270;SDS011;29963;44.594;11.368;2022-11-15T09:29:52;36.53;;;27.15;;
44270;SDS011;29963;44.594;11.368;2022-11-15T09:32:18;38.22;;;27.52;;
44270;SDS011;29963;44.594;11.368;2022-11-15T09:34:43;36.97;;;28.52;;
44270;SDS011;29963;44.594;11.368;2022-11-15T09:37:09;36.75;;;27.23;;
44270;SDS011;29963;44.594;11.368;2022-11-15T09:39:35;35.03;;;27.23;;
44270;SDS011;29963;44.594;11.368;2022-11-15T09:50:36;37.08;;;27.58;;
44270;SDS011;29963;44.594;11.368;2022-11-15T09:53:27;38.75;;;29.15;;
44270;SDS011;29963;44.594;11.368;2022-11-15T09:56:03;42.33;;;30.42;;
44270;SDS011;29963;44.594;11.368;2022-11-15T10:01:08;41.45;;;29.30;;
44270;SDS011;29963;44.594;11.368;2022-11-15T10:03:41;39.65;;;30.00;;
44270;SDS011;29963;44.594;11.368;2022-11-15T10:06:13;45.75;;;31.30;;
44270;SDS011;29963;44.594;11.368;2022-11-15T10:08:56;44.28;;;32.92;;
44270;SDS011;29963;44.594;11.368;2022-11-15T10:11:44;43.92;;;31.85;;
44270;SDS011;29963;44.594;11.368;2022-11-15T10:24:57;41.97;;;31.60;;
44270;SDS011;29963;44.594;11.368;2022-11-15T10:27:33;43.30;;;31.90;;
44270;SDS011;29963;44.594;11.368;2022-11-15T10:29:59;40.92;;;33.70;;
44270;SDS011;29963;44.594;11.368;2022-11-15T10:32:25;41.13;;;32.72;;
44270;SDS011;29963;44.594;11.368;2022-11-15T10:34:52;47.40;;;35.00;;
44270;SDS011;29963;44.594;11.368;2022-11-15T10:37:27;44.53;;;35.42;;
44270;SDS011;29963;44.594;11.368;2022-11-15T10:40:14;50.78;;;35.78;;
44270;SDS011;29963;44.594;11.368;2022-11-15T10:42:48;52.95;;;38.05;;
44270;SDS011;29963;44.594;11.368;2022-11-15T10:45:30;50.88;;;38.47;;
44270;SDS011;29963;44.594;11.368;2022-11-15T10:48:18;51.60;;;39.53;;
44270;SDS011;29963;44.594;11.368;2022-11-15T10:50:46;44.72;;;33.67;;
44270;SDS011;29963;44.594;11.368;2022-11-15T10:55:57;50.58;;;34.88;;
44270;SDS011;29963;44.594;11.368;2022-11-15T10:58:35;52.72;;;35.92;;
44270;SDS011;29963;44.594;11.368;2022-11-15T11:01:10;44.65;;;34.42;;
44270;SDS011;29963;44.594;11.368;2022-11-15T11:04:03;47.50;;;34.20;;
44270;SDS011;29963;44.594;11.368;2022-11-15T11:11:54;44.47;;;32.78;;
44270;SDS011;29963;44.594;11.368;2022-11-15T11:14:24;43.58;;;32.75;;
44270;SDS011;29963;44.594;11.368;2022-11-15T11:30:23;45.95;;;32.53;;
44270;SDS011;29963;44.594;11.368;2022-11-15T11:35:43;45.28;;;32.90;;
44270;SDS011;29963;44.594;11.368;2022-11-15T11:41:15;45.67;;;32.50;;
44270;SDS011;29963;44.594;11.368;2022-11-15T11:49:44;49.13;;;32.42;;
44270;SDS011;29963;44.594;11.368;2022-11-15T11:52:33;48.85;;;35.00;;
44270;SDS011;29963;44.594;11.368;2022-11-15T11:57:41;47.80;;;34.45;;
44270;SDS011;29963;44.594;11.368;2022-11-15T12:00:26;47.70;;;33.60;;
44270;SDS011;29963;44.594;11.368;2022-11-15T12:03:13;37.95;;;29.40;;
44270;SDS011;29963;44.594;11.368;2022-11-15T12:05:49;42.33;;;31.90;;
44270;SDS011;29963;44.594;11.368;2022-11-15T12:10:53;48.33;;;36.63;;
44270;SDS011;29963;44.594;11.368;2022-11-15T12:13:26;50.25;;;35.67;;
44270;SDS011;29963;44.594;11.368;2022-11-15T12:15:56;49.90;;;36.08;;
44270;SDS011;29963;44.594;11.368;2022-11-15T12:18:32;47.83;;;34.92;;
44270;SDS011;29963;44.594;11.368;2022-11-15T12:21:03;45.75;;;33.47;;
44270;SDS011;29963;44.594;11.368;2022-11-15T12:23:47;47.05;;;33.72;;
44270;SDS011;29963;44.594;11.368;2022-11-15T12:26:17;45.03;;;34.38;;
44270;SDS011;29963;44.594;11.368;2022-11-15T12:28:58;50.97;;;36.08;;
44270;SDS011;29963;44.594;11.368;2022-11-15T12:34:00;48.50;;;36.45;;
44270;SDS011;29963;44.594;11.368;2022-11-15T12:36:35;43.40;;;33.25;;
44270;SDS011;29963;44.594;11.368;2022-11-15T12:39:08;47.28;;;35.30;;
44270;SDS011;29963;44.594;11.368;2022-11-15T12:41:36;64.95;;;44.60;;
44270;SDS011;29963;44.594;11.368;2022-11-15T12:44:04;58.85;;;40.42;;
44270;SDS011;29963;44.594;11.368;2022-11-15T12:50:03;52.25;;;37.00;;
44270;SDS011;29963;44.594;11.368;2022-11-15T13:02:26;51.30;;;34.95;;
44270;SDS011;29963;44.594;11.368;2022-11-15T13:18:18;43.33;;;31.75;;
44270;SDS011;29963;44.594;11.368;2022-11-15T13:20:52;45.38;;;34.78;;
44270;SDS011;29963;44.594;11.368;2022-11-15T13:23:18;49.50;;;36.50;;
44270;SDS011;29963;44.594;11.368;2022-11-15T13:28:26;47.10;;;35.13;;
44270;SDS011;29963;44.594;11.368;2022-11-15T13:30:57;54.33;;;38.30;;
44270;SDS011;29963;44.594;11.368;2022-11-15T13:33:33;52.28;;;36.63;;
44270;SDS011;29963;44.594;11.368;2022-11-15T13:36:13;50.00;;;35.28;;
44270;SDS011;29963;44.594;11.368;2022-11-15T13:38:54;50.83;;;35.75;;
44270;SDS011;29963;44.594;11.368;2022-11-15T13:41:23;50.95;;;38.58;;
44270;SDS011;29963;44.594;11.368;2022-11-15T13:43:51;48.42;;;36.17;;
44270;SDS011;29963;44.594;11.368;2022-11-15T13:46:19;50.20;;;36.30;;
44270;SDS011;29963;44.594;11.368;2022-11-15T13:48:51;49.35;;;37.30;;
44270;SDS011;29963;44.594;11.368;2022-11-15T13:54:38;46.50;;;35.85;;
44270;SDS011;29963;44.594;11.368;2022-11-15T13:56:44;60.38;;;44.92;;
44270;SDS011;29963;44.594;11.368;2022-11-15T13:59:30;50.33;;;36.80;;
44270;SDS011;29963;44.594;11.368;2022-11-15T14:02:47;53.53;;;37.40;;
44270;SDS011;29963;44.594;11.368;2022-11-15T14:04:53;50.28;;;38.85;;
44270;SDS011;29963;44.594;11.368;2022-11-15T14:07:22;52.10;;;35.70;;
44270;SDS011;29963;44.594;11.368;2022-11-15T14:09:50;47.20;;;34.72;;
44270;SDS011;29963;44.594;11.368;2022-11-15T14:14:55;53.55;;;36.22;;
44270;SDS011;29963;44.594;11.368;2022-11-15T14:17:33;54.65;;;36.80;;
44270;SDS011;29963;44.594;11.368;2022-11-15T14:20:00;47.88;;;35.22;;
44270;SDS011;29963;44.594;11.368;2022-11-15T14:22:29;52.25;;;37.75;;
44270;SDS011;29963;44.594;11.368;2022-11-15T14:27:30;55.45;;;38.85;;
44270;SDS011;29963;44.594;11.368;2022-11-15T14:29:56;55.92;;;39.55;;
44270;SDS011;29963;44.594;11.368;2022-11-15T14:32:29;54.50;;;39.25;;
44270;SDS011;29963;44.594;11.368;2022-11-15T14:35:08;57.78;;;39.45;;
44270;SDS011;29963;44.594;11.368;2022-11-15T14:37:44;58.03;;;40.72;;
44270;SDS011;29963;44.594;11.368;2022-11-15T14:40:17;55.50;;;39.00;;
44270;SDS011;29963;44.594;11.368;2022-11-15T14:42:47;58.28;;;40.97;;
44270;SDS011;29963;44.594;11.368;2022-11-15T14:45:14;52.80;;;38.03;;
44270;SDS011;29963;44.594;11.368;2022-11-15T14:47:42;56.88;;;40.08;;
44270;SDS011;29963;44.594;11.368;2022-11-15T14:50:15;58.05;;;43.78;;
44270;SDS011;29963;44.594;11.368;2022-11-15T14:52:42;56.28;;;38.83;;
44270;SDS011;29963;44.594;11.368;2022-11-15T14:55:20;55.30;;;39.58;;
44270;SDS011;29963;44.594;11.368;2022-11-15T14:57:48;54.30;;;40.47;;
44270;SDS011;29963;44.594;11.368;2022-11-15T15:00:15;54.75;;;39.85;;
44270;SDS011;29963;44.594;11.368;2022-11-15T15:02:42;60.60;;;42.70;;
44270;SDS011;29963;44.594;11.368;2022-11-15T15:05:12;60.00;;;42.33;;
44270;SDS011;29963;44.594;11.368;2022-11-15T15:07:43;58.75;;;38.00;;
44270;SDS011;29963;44.594;11.368;2022-11-15T15:10:09;58.17;;;40.92;;
44270;SDS011;29963;44.594;11.368;2022-11-15T15:12:35;55.35;;;40.00;;
44270;SDS011;29963;44.594;11.368;2022-11-15T15:15:01;72.55;;;47.33;;
44270;SDS011;29963;44.594;11.368;2022-11-15T15:17:27;72.82;;;50.08;;
44270;SDS011;29963;44.594;11.368;2022-11-15T15:19:53;72.30;;;50.85;;
44270;SDS011;29963;44.594;11.368;2022-11-15T15:22:19;65.68;;;45.55;;
44270;SDS011;29963;44.594;11.368;2022-11-15T15:24:47;60.70;;;43.55;;
44270;SDS011;29963;44.594;11.368;2022-11-15T15:27:13;53.00;;;39.80;;
44270;SDS011;29963;44.594;11.368;2022-11-15T15:29:39;56.03;;;39.60;;
44270;SDS011;29963;44.594;11.368;2022-11-15T15:32:04;56.88;;;39.88;;
44270;SDS011;29963;44.594;11.368;2022-11-15T15:34:30;63.35;;;40.72;;
44270;SDS011;29963;44.594;11.368;2022-11-15T15:39:52;55.40;;;38.85;;
44270;SDS011;29963;44.594;11.368;2022-11-15T15:42:19;65.65;;;40.83;;
44270;SDS011;29963;44.594;11.368;2022-11-15T15:44:46;59.50;;;41.92;;
44270;SDS011;29963;44.594;11.368;2022-11-15T15:47:19;64.28;;;40.97;;
44270;SDS011;29963;44.594;11.368;2022-11-15T15:49:46;56.67;;;40.60;;
44270;SDS011;29963;44.594;11.368;2022-11-15T15:52:12;63.35;;;39.58;;
44270;SDS011;29963;44.594;11.368;2022-11-15T15:54:39;62.72;;;42.78;;
44270;SDS011;29963;44.594;11.368;2022-11-15T15:57:05;63.05;;;42.95;;
44270;SDS011;29963;44.594;11.368;2022-11-15T15:59:32;64.40;;;41.00;;
44270;SDS011;29963;44.594;11.368;2022-11-15T16:01:57;57.95;;;40.10;;
44270;SDS011;29963;44.594;11.368;2022-11-15T16:04:23;56.78;;;40.00;;
44270;SDS011;29963;44.594;11.368;2022-11-15T16:06:49;55.85;;;40.55;;
44270;SDS011;29963;44.594;11.368;2022-11-15T16:09:18;59.45;;;40.40;;
44270;SDS011;29963;44.594;11.368;2022-11-15T16:12:07;67.55;;;44.28;;
44270;SDS011;29963;44.594;11.368;2022-11-15T16:14:33;65.40;;;44.63;;
44270;SDS011;29963;44.594;11.368;2022-11-15T16:16:58;63.13;;;43.90;;
44270;SDS011;29963;44.594;11.368;2022-11-15T16:19:24;61.05;;;43.55;;
44270;SDS011;29963;44.594;11.368;2022-11-15T16:21:50;60.25;;;43.08;;
44270;SDS011;29963;44.594;11.368;2022-11-15T16:24:17;59.10;;;40.40;;
44270;SDS011;29963;44.594;11.368;2022-11-15T16:26:43;55.30;;;39.13;;
44270;SDS011;29963;44.594;11.368;2022-11-15T16:29:09;58.65;;;40.25;;
44270;SDS011;29963;44.594;11.368;2022-11-15T16:31:35;61.90;;;40.22;;
44270;SDS011;29963;44.594;11.368;2022-11-15T16:34:01;58.13;;;39.60;;
44270;SDS011;29963;44.594;11.368;2022-11-15T16:36:27;58.30;;;41.92;;